Time;durP1;ratioP1;P1;durP2;ratioP2;P2;SDS_P1;SDS_P2;PMS_P1;PMS_P2;Temp;Humidity;BMP_temperature;BMP_pressure;BME280_temperature;BME280_humidity;BME280_pressure;Samples;Min_cycle;Max_cycle;Signal;HPM_P1;HPM_P2
2022/03/03 00:00:35;;;;;;;22.45;14.70;;;;;;;-1.97;62.89;96798.27;1743541;82;21104;-82
2022/03/03 00:03:02;;;;;;;21.60;14.40;;;;;;;-1.97;62.93;96797.00;1743897;82;21109;-82
2022/03/03 00:05:28;;;;;;;22.10;14.70;;;;;;;-2.02;62.69;96790.11;1743732;82;21116;-82
2022/03/03 00:07:56;;;;;;;26.60;16.93;;;;;;;-1.99;62.97;96799.28;1743869;82;21069;-82
2022/03/03 00:10:21;;;;;;;24.75;15.23;;;;;;;-2.00;62.96;96789.55;1743874;82;21045;-82
2022/03/03 00:12:47;;;;;;;25.40;15.85;;;;;;;-1.99;63.38;96783.54;1743916;82;21005;-82
2022/03/03 00:15:13;;;;;;;22.65;15.43;;;;;;;-1.99;63.25;96787.36;1743630;82;20973;-82
2022/03/03 00:17:38;;;;;;;21.42;14.87;;;;;;;-1.98;63.36;96783.09;1742607;82;21080;-82
2022/03/03 00:20:05;;;;;;;20.48;13.55;;;;;;;-1.97;63.36;96782.17;1743867;82;21419;-82
2022/03/03 00:22:31;;;;;;;22.00;14.80;;;;;;;-1.98;63.23;96787.72;1743634;82;21097;-82
2022/03/03 00:24:57;;;;;;;20.43;13.98;;;;;;;-1.98;63.40;96786.91;1744093;82;21085;-82
2022/03/03 00:27:23;;;;;;;20.27;13.78;;;;;;;-1.99;63.23;96784.00;1743902;82;21388;-83
2022/03/03 00:29:48;;;;;;;20.95;14.60;;;;;;;-2.00;63.26;96781.91;1743746;82;21037;-82
2022/03/03 00:32:14;;;;;;;21.45;13.72;;;;;;;-2.01;63.13;96777.73;1743843;82;21080;-82
2022/03/03 00:34:40;;;;;;;18.42;12.90;;;;;;;-2.05;62.77;96772.47;1743464;82;21125;-82
2022/03/03 00:37:06;;;;;;;21.70;13.70;;;;;;;-2.09;62.69;96774.04;1743753;82;21062;-83
2022/03/03 00:39:31;;;;;;;24.47;14.87;;;;;;;-2.14;62.77;96776.84;1747851;82;21088;-82
2022/03/03 00:41:57;;;;;;;21.48;14.78;;;;;;;-2.16;63.08;96762.94;1744617;82;21152;-82
2022/03/03 00:44:23;;;;;;;21.85;14.33;;;;;;;-2.18;63.21;96771.59;1745298;82;21068;-82
2022/03/03 00:46:48;;;;;;;22.77;14.65;;;;;;;-2.19;63.16;96771.22;1744541;82;21451;-83
2022/03/03 00:49:14;;;;;;;23.30;13.72;;;;;;;-2.21;63.29;96766.23;1744607;82;21060;-82
2022/03/03 00:51:40;;;;;;;21.80;13.58;;;;;;;-2.22;63.39;96757.42;1744385;82;21104;-82
2022/03/03 00:54:06;;;;;;;18.70;13.68;;;;;;;-2.23;63.38;96763.42;1744666;82;21005;-83
2022/03/03 00:56:31;;;;;;;22.35;14.85;;;;;;;-2.27;63.39;96760.71;1744491;82;21045;-82
2022/03/03 00:58:57;;;;;;;19.57;14.43;;;;;;;-2.30;63.59;96756.59;1744554;82;21045;-83
2022/03/03 01:01:24;;;;;;;22.65;15.40;;;;;;;-2.29;63.79;96754.87;1744234;82;21026;-82
2022/03/03 01:03:50;;;;;;;22.02;15.68;;;;;;;-2.31;63.67;96748.60;1744493;82;21045;-82
2022/03/03 01:06:16;;;;;;;24.67;16.05;;;;;;;-2.32;63.75;96746.16;1744287;82;21458;-82
2022/03/03 01:08:42;;;;;;;21.23;15.25;;;;;;;-2.33;63.93;96746.61;1744257;82;21340;-82
2022/03/03 01:11:08;;;;;;;21.82;15.50;;;;;;;-2.33;63.90;96741.52;1744268;82;20982;-82
2022/03/03 01:13:34;;;;;;;27.00;17.98;;;;;;;-2.35;63.95;96738.70;1744547;82;20996;-82
2022/03/03 01:16:00;;;;;;;27.48;17.77;;;;;;;-2.36;64.03;96740.44;1744451;82;21013;-82
2022/03/03 01:18:25;;;;;;;29.60;19.60;;;;;;;-2.34;64.21;96735.25;1744605;82;21320;-83
2022/03/03 01:20:54;;;;;;;28.92;19.30;;;;;;;-2.33;64.18;96731.80;1726723;82;20968;-82
2022/03/03 01:23:19;;;;;;;29.40;16.97;;;;;;;-2.33;64.26;96727.98;1751985;82;21016;-82
2022/03/03 01:25:45;;;;;;;28.02;18.25;;;;;;;-2.33;64.22;96724.16;1751802;82;21081;-83
2022/03/03 01:28:10;;;;;;;26.68;17.32;;;;;;;-2.35;64.10;96725.98;1751908;82;20970;-82
2022/03/03 01:30:36;;;;;;;22.85;15.25;;;;;;;-2.37;64.05;96725.27;1751881;82;21012;-82
2022/03/03 01:33:02;;;;;;;27.42;16.25;;;;;;;-2.40;63.98;96725.00;1751694;82;21048;-82
2022/03/03 01:35:27;;;;;;;24.65;16.50;;;;;;;-2.43;64.05;96720.92;1751634;82;21047;-82
2022/03/03 01:37:53;;;;;;;23.57;16.93;;;;;;;-2.43;64.17;96717.56;1752046;82;21122;-82
2022/03/03 01:40:22;;;;;;;28.40;18.15;;;;;;;-2.42;64.26;96719.19;1742480;82;21089;-82
2022/03/03 01:42:47;;;;;;;23.95;15.68;;;;;;;-2.38;64.47;96714.73;1739887;82;21042;-82
2022/03/03 01:45:12;;;;;;;23.62;15.70;;;;;;;-2.36;64.43;96717.53;1740327;82;21024;-82
2022/03/03 01:47:38;;;;;;;25.97;17.05;;;;;;;-2.34;64.33;96723.34;1670410;82;20993;-82
2022/03/03 01:50:05;;;;;;;25.50;17.07;;;;;;;-2.54;64.31;96687.67;1740218;82;20981;-83
2022/03/03 01:52:31;;;;;;;27.20;17.40;;;;;;;-2.35;64.33;96712.80;1740011;82;21009;-82
2022/03/03 01:54:56;;;;;;;27.58;18.40;;;;;;;-2.35;64.21;96708.98;1743946;82;20979;-82
2022/03/03 01:57:22;;;;;;;29.90;18.35;;;;;;;-2.34;63.96;96705.98;1741178;81;21045;-82
2022/03/03 01:59:48;;;;;;;29.37;18.85;;;;;;;-2.34;63.88;96709.80;1739785;82;20997;-82
2022/03/03 02:02:15;;;;;;;31.55;19.55;;;;;;;-2.35;63.82;96709.44;1739805;82;21108;-82
2022/03/03 02:04:41;;;;;;;36.70;21.68;;;;;;;-2.37;63.87;96706.17;1739228;82;22023;-82
2022/03/03 02:07:07;;;;;;;41.73;23.55;;;;;;;-2.38;63.80;96706.64;1740241;82;20970;-83
2022/03/03 02:09:34;;;;;;;38.42;22.95;;;;;;;-2.38;63.93;96707.09;1740204;82;21028;-83
2022/03/03 02:12:00;;;;;;;42.88;23.83;;;;;;;-2.36;63.73;96714.17;1740103;82;20962;-82
2022/03/03 02:14:25;;;;;;;40.63;24.05;;;;;;;-2.37;63.86;96711.27;1740190;82;21361;-82
2022/03/03 02:16:51;;;;;;;44.83;26.07;;;;;;;-2.39;63.81;96711.82;1740121;82;20978;-82
2022/03/03 02:19:18;;;;;;;44.65;24.47;;;;;;;-2.42;63.79;96711.11;1740180;82;20978;-82
2022/03/03 02:21:51;;;;;;;40.35;24.32;;;;;;;-2.44;63.97;96709.56;1739858;82;21447;-82
2022/03/03 02:24:19;;;;;;;37.98;24.10;;;;;;;-2.46;64.09;96704.55;1740151;82;21025;-83
2022/03/03 02:26:48;;;;;;;42.48;23.00;;;;;;;-2.47;64.25;96699.09;1739986;82;21332;-82
2022/03/03 02:29:15;;;;;;;36.23;21.65;;;;;;;-2.48;64.50;96693.65;1740013;82;21468;-82
2022/03/03 02:31:40;;;;;;;40.78;22.73;;;;;;;-2.48;63.93;96694.10;1740013;82;20984;-82
2022/03/03 02:34:07;;;;;;;35.90;21.95;;;;;;;-2.48;63.67;96689.02;1715368;82;21060;-82
2022/03/03 02:36:32;;;;;;;40.40;23.10;;;;;;;-2.48;63.68;96692.83;1739806;82;20969;-82
2022/03/03 02:39:03;;;;;;;40.95;22.48;;;;;;;-2.51;63.74;96691.75;1739829;82;21033;-83
2022/03/03 02:41:29;;;;;;;44.03;25.63;;;;;;;-2.54;63.77;96688.13;1738665;82;21002;-82
2022/03/03 02:43:56;;;;;;;43.45;24.32;;;;;;;-2.54;63.69;96693.22;1717470;82;22219;-82
2022/03/03 02:46:22;;;;;;;41.45;23.67;;;;;;;-2.58;63.39;96690.05;1738412;82;21061;-82
2022/03/03 02:48:48;;;;;;;40.75;23.60;;;;;;;-2.58;63.64;96690.05;1738347;82;20962;-82
2022/03/03 02:51:14;;;;;;;35.20;21.87;;;;;;;-2.60;63.78;96686.78;1738378;82;21390;-82
2022/03/03 02:53:39;;;;;;;36.38;21.05;;;;;;;-2.62;63.78;96683.95;1738316;82;20993;-82
2022/03/03 02:56:05;;;;;;;38.75;24.10;;;;;;;-2.66;63.77;96687.14;1738562;82;21014;-82
2022/03/03 02:58:31;;;;;;;41.85;24.20;;;;;;;-2.66;63.90;96684.59;1738488;82;20970;-82
2022/03/03 03:00:58;;;;;;;42.50;24.92;;;;;;;-2.66;63.86;96679.51;1738314;82;21001;-82
2022/03/03 03:03:23;;;;;;;47.85;28.70;;;;;;;-2.64;63.81;96685.31;1738458;82;21062;-82
2022/03/03 03:05:49;;;;;;;49.45;29.85;;;;;;;-2.67;63.86;96676.61;1738311;82;21447;-82
2022/03/03 03:08:15;;;;;;;56.00;30.35;;;;;;;-2.66;64.12;96674.88;1738454;82;21000;-82
2022/03/03 03:10:41;;;;;;;48.55;28.15;;;;;;;-2.70;64.41;96670.44;1738396;82;21024;-82
2022/03/03 03:13:08;;;;;;;47.27;30.68;;;;;;;-2.75;64.26;96674.54;1738655;82;21042;-82
2022/03/03 03:15:34;;;;;;;54.08;29.12;;;;;;;-2.77;64.25;96667.88;1738660;82;21398;-82
2022/03/03 03:18:13;;;;;;;66.77;33.58;;;;;;;-2.77;64.17;96669.16;1738473;82;21001;-83
2022/03/03 03:20:41;;;;;;;59.03;33.85;;;;;;;-2.80;64.30;96670.16;1738108;82;21404;-82
2022/03/03 03:23:08;;;;;;;59.00;32.28;;;;;;;-2.81;64.42;96670.26;1738602;82;20985;-83
2022/03/03 03:25:34;;;;;;;66.50;35.98;;;;;;;-2.83;64.50;96672.90;1738499;82;21032;-83
2022/03/03 03:28:00;;;;;;;65.05;35.00;;;;;;;-2.87;64.50;96671.45;1738323;82;21017;-82
2022/03/03 03:30:26;;;;;;;59.83;36.55;;;;;;;-2.89;64.67;96673.28;1738453;82;21384;-83
2022/03/03 03:32:51;;;;;;;66.97;34.85;;;;;;;-2.92;64.93;96674.73;1738460;82;21021;-83
2022/03/03 03:35:17;;;;;;;64.12;37.28;;;;;;;-2.90;64.87;96675.91;1738308;82;21048;-82
2022/03/03 03:37:43;;;;;;;78.45;41.92;;;;;;;-2.90;64.93;96673.38;1737383;82;20990;-82
2022/03/03 03:40:09;;;;;;;73.42;39.98;;;;;;;-2.87;64.93;96677.00;1742986;82;21013;-83
2022/03/03 03:42:35;;;;;;;73.02;41.98;;;;;;;-2.89;64.70;96677.09;1750126;82;21056;-82
2022/03/03 03:45:01;;;;;;;66.67;39.90;;;;;;;-2.92;64.77;96674.73;1750111;82;21032;-82
2022/03/03 03:47:27;;;;;;;72.50;40.65;;;;;;;-2.92;64.81;96677.73;1749934;82;21012;-82
2022/03/03 03:49:53;;;;;;;68.30;38.90;;;;;;;-2.93;64.87;96678.62;1750006;82;21064;-83
2022/03/03 03:52:18;;;;;;;72.78;40.43;;;;;;;-2.95;64.97;96681.25;1750379;82;21466;-82
2022/03/03 03:54:44;;;;;;;74.75;41.30;;;;;;;-2.96;65.14;96680.08;1750177;82;20950;-82
2022/03/03 03:57:10;;;;;;;73.25;39.95;;;;;;;-2.97;65.13;96678.45;1750403;82;20990;-82
2022/03/03 03:59:35;;;;;;;77.08;42.93;;;;;;;-2.98;65.16;96680.17;1750231;82;21002;-82
2022/03/03 04:02:01;;;;;;;76.70;42.55;;;;;;;-2.98;65.13;96674.27;1725546;82;21413;-82
2022/03/03 04:04:28;;;;;;;81.08;45.12;;;;;;;-3.06;65.11;96671.74;1749851;82;21555;-82
2022/03/03 04:06:54;;;;;;;84.40;43.80;;;;;;;-3.08;65.07;96667.66;1750284;82;20977;-83
2022/03/03 04:09:20;;;;;;;88.97;47.33;;;;;;;-3.11;65.23;96668.63;1750284;82;20994;-82
2022/03/03 04:11:46;;;;;;;87.85;46.90;;;;;;;-3.11;65.28;96666.09;1750251;82;20982;-82
2022/03/03 04:14:12;;;;;;;78.35;45.80;;;;;;;-3.11;65.43;96664.83;1750008;82;21038;-82
2022/03/03 04:16:38;;;;;;;78.75;43.95;;;;;;;-3.09;65.50;96667.30;1739523;82;20960;-82
2022/03/03 04:19:03;;;;;;;80.20;47.53;;;;;;;-3.10;65.53;96665.19;1743810;82;20934;-82
2022/03/03 04:21:31;;;;;;;80.05;44.05;;;;;;;-3.13;65.69;96655.66;1751446;82;21344;-82
2022/03/03 04:23:57;;;;;;;85.77;44.98;;;;;;;-3.14;65.75;96662.92;1751787;82;20993;-83
2022/03/03 04:26:23;;;;;;;74.07;43.70;;;;;;;-3.13;65.86;96661.56;1751787;82;21060;-82
2022/03/03 04:28:49;;;;;;;83.52;45.73;;;;;;;-3.13;65.89;96660.29;1726619;82;20966;-82
2022/03/03 04:31:14;;;;;;;82.10;45.33;;;;;;;-3.16;65.84;96652.85;1751511;82;20977;-82
2022/03/03 04:33:42;;;;;;;78.22;44.05;;;;;;;-3.19;65.84;96641.60;1751886;81;21399;-82
2022/03/03 04:36:07;;;;;;;70.80;40.80;;;;;;;-3.22;65.97;96632.89;1751574;82;21071;-82
2022/03/03 04:38:33;;;;;;;71.70;42.43;;;;;;;-3.23;66.18;96627.45;1751939;82;21380;-82
2022/03/03 04:40:59;;;;;;;76.10;41.90;;;;;;;-3.22;66.19;96627.81;1733474;81;21015;-82
2022/03/03 04:43:25;;;;;;;65.52;40.23;;;;;;;-3.23;66.09;96623.64;1725217;82;21033;-82
2022/03/03 04:45:50;;;;;;;69.65;39.80;;;;;;;-3.25;66.20;96618.29;1725196;82;21029;-82
2022/03/03 04:48:16;;;;;;;73.30;41.65;;;;;;;-3.26;66.19;96619.17;1725444;82;21044;-82
2022/03/03 04:50:42;;;;;;;72.37;40.95;;;;;;;-3.26;66.19;96627.61;1725785;82;22136;-82
2022/03/03 04:53:08;;;;;;;69.85;38.73;;;;;;;-3.27;66.29;96624.70;1725912;82;21049;-83
2022/03/03 04:55:34;;;;;;;64.85;38.38;;;;;;;-3.30;66.18;96616.45;1726179;82;21028;-83
2022/03/03 04:58:00;;;;;;;76.77;43.40;;;;;;;-3.35;66.15;96615.46;1726263;82;21005;-82
2022/03/03 05:00:25;;;;;;;63.02;39.00;;;;;;;-3.36;66.14;96617.64;1726231;82;20962;-82
2022/03/03 05:02:51;;;;;;;63.42;37.73;;;;;;;-3.34;66.14;96610.74;1726343;82;21001;-83
2022/03/03 05:05:17;;;;;;;61.73;36.23;;;;;;;-3.33;66.07;96618.73;1725947;82;21112;-83
2022/03/03 05:07:43;;;;;;;63.85;35.38;;;;;;;-3.35;66.09;96610.38;1715802;83;20974;-82
2022/03/03 05:10:09;;;;;;;68.30;35.78;;;;;;;-3.37;66.06;96602.85;1726230;82;21340;-82
2022/03/03 05:12:35;;;;;;;62.90;35.95;;;;;;;-3.40;66.08;96604.31;1726020;82;20993;-83
2022/03/03 05:15:01;;;;;;;63.87;35.30;;;;;;;-3.40;65.98;96606.03;1726317;82;20977;-82
2022/03/03 05:17:27;;;;;;;65.42;35.75;;;;;;;-3.42;65.95;96598.93;1725087;83;21018;-83
2022/03/03 05:19:54;;;;;;;58.75;34.25;;;;;;;-3.43;65.93;96590.49;1726069;82;21001;-82
2022/03/03 05:22:19;;;;;;;46.73;28.05;;;;;;;-3.43;66.02;96589.22;1710601;82;20989;-82
2022/03/03 05:24:49;;;;;;;49.60;29.40;;;;;;;-3.45;66.16;96591.05;1719777;82;21442;-82
2022/03/03 05:27:13;;;;;;;38.90;23.90;;;;;;;-3.44;66.47;96596.48;1724383;82;21018;-82
2022/03/03 05:29:38;;;;;;;32.05;18.98;;;;;;;-3.43;66.63;96598.56;1724814;82;21388;-82
2022/03/03 05:32:05;;;;;;;26.95;17.42;;;;;;;-3.44;66.68;96588.05;1724447;82;21021;-82
2022/03/03 05:34:31;;;;;;;27.02;18.40;;;;;;;-3.42;66.76;96593.84;1724531;82;21021;-82
2022/03/03 05:36:57;;;;;;;27.73;16.57;;;;;;;-3.41;66.79;96589.16;1724777;82;21395;-82
2022/03/03 05:39:23;;;;;;;25.08;15.80;;;;;;;-3.41;66.79;96585.34;1724623;83;20993;-82
2022/03/03 05:41:50;;;;;;;20.82;14.07;;;;;;;-3.43;66.81;96589.22;1741085;82;21044;-82
2022/03/03 05:44:16;;;;;;;22.82;15.08;;;;;;;-3.43;66.97;96587.14;1742275;82;21004;-82
2022/03/03 05:46:42;;;;;;;21.95;13.72;;;;;;;-3.44;67.16;96590.12;1715804;82;21389;-82
2022/03/03 05:49:10;;;;;;;22.62;14.03;;;;;;;-3.44;67.43;96591.41;1742021;82;20990;-83
2022/03/03 05:51:36;;;;;;;18.95;14.35;;;;;;;-3.44;67.38;96596.48;1742534;82;21938;-82
2022/03/03 05:54:03;;;;;;;20.45;13.55;;;;;;;-3.42;67.32;96597.66;1741887;82;20977;-82
2022/03/03 05:56:32;;;;;;;19.23;13.45;;;;;;;-3.42;67.38;96596.39;1741265;82;21479;-82
2022/03/03 05:58:58;;;;;;;25.97;16.23;;;;;;;-3.38;67.45;96599.13;1741856;82;21006;-82
2022/03/03 06:01:24;;;;;;;35.13;19.82;;;;;;;-3.35;67.62;96593.41;1742777;82;20986;-82
2022/03/03 06:03:50;;;;;;;36.50;23.20;;;;;;;-3.32;67.73;96594.95;1743471;82;20997;-82
2022/03/03 06:06:22;;;;;;;40.95;26.20;;;;;;;-3.28;67.64;96595.13;1743431;82;21446;-82
2022/03/03 06:09:14;;;;;;;36.85;22.75;;;;;;;-3.27;67.58;96598.02;1743594;82;21083;-83
2022/03/03 06:11:49;;;;;;;49.80;31.35;;;;;;;-3.25;67.49;96603.86;1743575;82;21044;-82
2022/03/03 06:14:43;;;;;;;55.15;31.82;;;;;;;-3.25;67.44;96605.12;1743793;82;21958;-82
2022/03/03 06:17:09;;;;;;;50.75;30.15;;;;;;;-3.24;67.40;96601.67;1743238;82;21017;-82
2022/03/03 06:19:41;;;;;;;57.73;32.67;;;;;;;-3.18;67.45;96615.28;1743422;81;21495;-82
2022/03/03 06:22:07;;;;;;;59.88;33.78;;;;;;;-3.12;67.69;96620.44;1743275;82;20997;-82
2022/03/03 06:24:33;;;;;;;59.08;36.63;;;;;;;-3.08;67.63;96619.37;1742791;82;21443;-82
2022/03/03 06:27:00;;;;;;;60.73;34.20;;;;;;;-3.06;67.52;96609.92;1743352;82;21008;-82
2022/03/03 06:29:25;;;;;;;66.02;35.83;;;;;;;-3.03;67.22;96616.89;1743314;82;20985;-82
2022/03/03 06:31:51;;;;;;;54.23;34.78;;;;;;;-3.00;67.26;96616.34;1743502;82;22184;-83
2022/03/03 06:34:20;;;;;;;62.25;33.30;;;;;;;-2.99;67.13;96616.70;1743573;82;21049;-82
2022/03/03 06:36:45;;;;;;;61.35;35.35;;;;;;;-2.97;67.29;96614.43;1743459;82;21064;-83
2022/03/03 06:39:10;;;;;;;60.98;35.13;;;;;;;-2.91;67.67;96611.98;1744581;82;20970;-83
2022/03/03 06:41:36;;;;;;;63.50;35.10;;;;;;;-2.88;67.56;96610.07;1739381;82;21392;-83
2022/03/03 06:44:02;;;;;;;61.83;35.60;;;;;;;-2.84;67.39;96609.42;1738113;82;21005;-82
2022/03/03 06:46:28;;;;;;;60.65;35.13;;;;;;;-2.82;67.37;96608.41;1730524;81;20993;-82
2022/03/03 06:48:54;;;;;;;63.20;37.25;;;;;;;-2.81;67.12;96610.05;1738078;82;21044;-83
2022/03/03 06:51:21;;;;;;;68.87;36.83;;;;;;;-2.77;67.11;96606.42;1731787;82;21372;-82
2022/03/03 06:53:47;;;;;;;58.68;34.83;;;;;;;-2.74;67.24;96611.31;1730330;82;21021;-83
2022/03/03 06:56:13;;;;;;;62.53;35.23;;;;;;;-2.69;67.19;96603.84;1726822;82;21017;-82
2022/03/03 06:58:39;;;;;;;63.17;38.05;;;;;;;-2.64;67.32;96609.45;1708421;82;21061;-82
2022/03/03 07:01:07;;;;;;;66.67;37.63;;;;;;;-2.61;67.19;96615.16;1728324;82;21397;-82
2022/03/03 07:03:33;;;;;;;67.45;38.92;;;;;;;-2.57;67.31;96609.00;1736874;82;22025;-82
2022/03/03 07:06:00;;;;;;;64.32;35.73;;;;;;;-2.52;67.33;96607.43;1720746;82;21028;-82
2022/03/03 07:08:27;;;;;;;66.33;37.42;;;;;;;-2.44;67.14;96612.88;1732767;82;21040;-82
2022/03/03 07:10:52;;;;;;;61.05;34.98;;;;;;;-2.39;67.09;96612.58;1735754;81;20996;-82
2022/03/03 07:13:18;;;;;;;67.35;37.78;;;;;;;-2.30;67.08;96622.16;1731973;82;20989;-82
2022/03/03 07:16:08;;;;;;;67.27;38.50;;;;;;;-2.23;67.10;96614.05;1731844;82;20970;-82
2022/03/03 07:18:39;;;;;;;66.65;37.48;;;;;;;-2.15;66.93;96616.91;1663486;82;21005;-83
2022/03/03 07:21:15;;;;;;;54.93;30.67;;;;;;;-2.06;66.52;96612.16;1713042;82;21483;-83
2022/03/03 07:23:43;;;;;;;66.82;37.03;;;;;;;-1.97;66.30;96614.09;1728845;82;21062;-84
2022/03/03 07:26:11;;;;;;;68.35;37.17;;;;;;;-1.90;65.95;96617.44;1728481;82;21009;-84
2022/03/03 07:28:39;;;;;;;70.42;40.17;;;;;;;-1.85;65.65;96611.58;1731347;82;21056;-84
2022/03/03 07:31:06;;;;;;;69.90;38.55;;;;;;;-1.78;65.17;96613.74;1733319;81;21051;-83
2022/03/03 07:33:41;;;;;;;67.32;38.65;;;;;;;-1.73;65.32;96611.24;1723559;82;21015;-84
2022/03/03 07:36:09;;;;;;;66.90;39.03;;;;;;;-1.63;65.34;96609.73;1728073;82;21044;-83
2022/03/03 07:38:37;;;;;;;71.57;38.78;;;;;;;-1.54;65.00;96618.48;1731629;81;21005;-84
2022/03/03 07:41:04;;;;;;;79.67;46.05;;;;;;;-1.48;65.19;96612.16;1736854;80;21507;-84
2022/03/03 07:43:30;;;;;;;76.53;42.45;;;;;;;-1.41;64.84;96610.39;1730548;81;21049;-84
2022/03/03 07:45:55;;;;;;;77.55;43.65;;;;;;;-1.32;64.59;96607.67;1739578;81;21430;-84
2022/03/03 07:48:24;;;;;;;70.17;41.75;;;;;;;-1.25;64.36;96603.80;1743010;81;21019;-84
2022/03/03 07:50:51;;;;;;;72.58;41.83;;;;;;;-1.21;63.96;96606.50;1726433;81;20985;-84
2022/03/03 07:53:16;;;;;;;74.25;41.48;;;;;;;-1.16;63.85;96606.17;1740099;81;21167;-84
2022/03/03 07:55:53;;;;;;;83.42;45.75;;;;;;;-1.14;63.76;96604.33;1743194;81;21460;-84
2022/03/03 07:58:21;;;;;;;79.70;43.65;;;;;;;-1.11;63.83;96610.52;1739395;81;21069;-83
2022/03/03 08:00:51;;;;;;;68.85;42.58;;;;;;;-1.08;63.74;96601.38;1741321;81;21026;-83
2022/03/03 08:03:19;;;;;;;77.65;44.53;;;;;;;-1.03;63.87;96596.31;1738033;81;20962;-83
2022/03/03 08:05:47;;;;;;;71.53;42.73;;;;;;;-0.98;63.94;96604.92;1735291;81;21009;-82
2022/03/03 08:08:16;;;;;;;75.72;44.18;;;;;;;-0.93;63.75;96599.88;1712454;82;21041;-83
2022/03/03 08:10:43;;;;;;;72.82;44.58;;;;;;;-0.82;63.65;96600.85;1757715;81;20998;-83
2022/03/03 08:13:16;;;;;;;67.25;39.90;;;;;;;-0.80;63.33;96593.94;1739963;81;21424;-83
2022/03/03 08:15:42;;;;;;;72.87;42.05;;;;;;;-0.81;63.39;96591.84;1738969;81;21042;-82
2022/03/03 08:18:08;;;;;;;72.00;44.40;;;;;;;-0.99;63.38;96557.38;1748151;81;20954;-83
2022/03/03 08:20:35;;;;;;;77.47;47.67;;;;;;;-0.88;63.12;96571.48;1749097;81;21085;-83
2022/03/03 08:23:01;;;;;;;70.67;45.10;;;;;;;-0.62;63.25;96586.27;1743772;81;21406;-83
2022/03/03 08:25:27;;;;;;;78.35;43.48;;;;;;;-0.53;63.17;96580.50;1743409;81;21072;-83
2022/03/03 08:27:54;;;;;;;75.83;43.13;;;;;;;-0.43;63.13;96585.78;1753332;81;21062;-83
2022/03/03 08:30:20;;;;;;;66.70;41.98;;;;;;;-0.34;62.63;96588.47;1748175;81;21701;-83
2022/03/03 08:33:00;;;;;;;68.37;40.33;;;;;;;-0.26;62.59;96580.74;1745792;81;21037;-83
2022/03/03 08:35:27;;;;;;;76.75;42.90;;;;;;;-0.20;62.10;96572.16;1727604;81;21058;-83
2022/03/03 08:38:10;;;;;;;67.60;39.48;;;;;;;-0.14;62.04;96577.31;1744332;80;21551;-83
2022/03/03 08:40:36;;;;;;;66.47;41.60;;;;;;;-0.08;61.80;96576.86;1740783;80;21049;-83
2022/03/03 08:43:05;;;;;;;64.92;39.85;;;;;;;-0.03;61.61;96576.86;1747606;80;21750;-83
2022/03/03 08:45:34;;;;;;;61.50;37.30;;;;;;;0.03;61.53;96574.34;1751532;81;21049;-83
2022/03/03 08:48:07;;;;;;;63.70;36.58;;;;;;;0.09;61.04;96571.80;1745166;81;21376;-83
2022/03/03 08:50:36;;;;;;;55.58;32.63;;;;;;;0.18;60.90;96578.33;1751299;80;22011;-83
2022/03/03 08:53:03;;;;;;;55.08;33.20;;;;;;;0.30;60.55;96581.70;1750789;80;21109;-83
2022/03/03 08:55:34;;;;;;;63.20;35.48;;;;;;;0.44;60.16;96587.89;1752336;80;21077;-84
2022/03/03 08:58:00;;;;;;;50.20;30.95;;;;;;;0.55;59.54;96580.24;1749991;80;21084;-83
2022/03/03 09:00:27;;;;;;;51.23;31.57;;;;;;;0.65;58.46;96573.98;1731480;80;21439;-83
2022/03/03 09:02:53;;;;;;;47.38;30.32;;;;;;;0.75;58.89;96568.50;1753044;80;21070;-84
2022/03/03 09:05:18;;;;;;;43.80;27.73;;;;;;;0.84;58.01;96574.67;1747354;80;21069;-83
2022/03/03 09:07:44;;;;;;;39.20;22.98;;;;;;;0.82;57.59;96569.68;1753872;80;21039;-82
2022/03/03 09:10:10;;;;;;;54.80;32.00;;;;;;;0.71;56.05;96578.63;1756070;80;21048;-83
2022/03/03 09:12:36;;;;;;;52.78;32.13;;;;;;;0.64;58.06;96571.05;1732804;80;21043;-83
2022/03/03 09:15:03;;;;;;;41.95;27.45;;;;;;;0.63;57.61;96575.00;1708387;80;21035;-83
2022/03/03 09:17:29;;;;;;;35.75;23.05;;;;;;;0.67;57.62;96570.84;1756939;80;20979;-83
2022/03/03 09:19:56;;;;;;;44.15;27.32;;;;;;;0.68;56.40;96572.94;1751463;80;21446;-83
2022/03/03 09:22:21;;;;;;;47.53;28.90;;;;;;;0.68;57.07;96571.19;1749252;80;20935;-83
2022/03/03 09:24:47;;;;;;;56.83;35.75;;;;;;;0.76;57.71;96569.31;1750853;80;20970;-83
2022/03/03 09:27:13;;;;;;;52.50;33.05;;;;;;;0.79;57.00;96570.36;1742530;80;21944;-83
2022/03/03 09:29:38;;;;;;;55.00;32.85;;;;;;;0.84;56.95;96563.17;1739943;80;21048;-83
2022/03/03 09:32:05;;;;;;;56.85;33.40;;;;;;;0.86;56.71;96562.58;1752995;80;21019;-83
2022/03/03 09:34:31;;;;;;;53.50;33.35;;;;;;;0.82;56.54;96563.29;1735578;80;21060;-83
2022/03/03 09:36:56;;;;;;;46.48;27.00;;;;;;;0.86;56.96;96560.84;1745452;80;21459;-83
2022/03/03 09:39:22;;;;;;;51.83;35.08;;;;;;;0.94;57.48;96564.07;1742258;80;22028;-83
2022/03/03 09:41:50;;;;;;;52.67;32.00;;;;;;;0.93;56.92;96566.75;1745894;80;21025;-83
2022/03/03 09:44:24;;;;;;;52.48;33.02;;;;;;;0.98;56.95;96564.67;1728251;81;20994;-83
2022/03/03 09:46:49;;;;;;;53.75;33.70;;;;;;;1.03;57.10;96569.77;1734898;81;20951;-83
2022/03/03 09:49:16;;;;;;;52.43;31.57;;;;;;;1.07;56.46;96563.48;1737539;81;22030;-82
2022/03/03 09:51:41;;;;;;;45.43;30.00;;;;;;;1.11;56.37;96569.98;1725488;80;20981;-83
2022/03/03 09:54:07;;;;;;;49.63;31.20;;;;;;;1.12;55.90;96556.25;1723142;81;20938;-83
2022/03/03 09:56:33;;;;;;;61.02;36.45;;;;;;;1.16;55.98;96557.66;1719237;81;20971;-83
2022/03/03 09:59:01;;;;;;;119.05;65.62;;;;;;;1.20;55.89;96565.91;1731480;81;21004;-83
2022/03/03 10:01:28;;;;;;;40.52;26.85;;;;;;;1.30;55.90;96562.14;1727046;81;21018;-83
2022/03/03 10:03:55;;;;;;;41.13;27.00;;;;;;;1.37;55.12;96559.00;1738746;81;20998;-83
2022/03/03 10:06:23;;;;;;;36.90;24.50;;;;;;;1.39;54.99;96559.69;1706620;80;21032;-83
2022/03/03 10:08:52;;;;;;;39.45;27.32;;;;;;;1.45;54.25;96554.08;1757534;80;21397;-83
2022/03/03 10:11:18;;;;;;;41.20;25.92;;;;;;;1.51;55.20;96550.23;1759094;80;21446;-82
2022/03/03 10:13:47;;;;;;;32.17;20.35;;;;;;;1.60;54.17;96558.45;1747260;80;21044;-82
2022/03/03 10:16:29;;;;;;;40.58;25.48;;;;;;;1.61;52.33;96548.55;1755400;80;21041;-82
2022/03/03 10:19:01;;;;;;;33.90;23.35;;;;;;;1.57;53.52;96554.05;1756273;80;20968;-83
2022/03/03 10:21:28;;;;;;;41.73;25.82;;;;;;;1.58;53.51;96554.39;1752543;80;21044;-83
2022/03/03 10:23:54;;;;;;;41.13;27.60;;;;;;;1.63;54.08;96550.55;1752704;80;20969;-83
2022/03/03 10:26:20;;;;;;;33.28;23.92;;;;;;;1.73;54.55;96548.05;1760297;80;20995;-83
2022/03/03 10:28:52;;;;;;;33.88;24.00;;;;;;;1.83;54.58;96546.39;1753719;80;20995;-83
2022/03/03 10:31:20;;;;;;;35.05;22.35;;;;;;;1.91;53.12;96548.31;1752791;80;20987;-83
2022/03/03 10:33:47;;;;;;;38.53;24.57;;;;;;;1.92;52.03;96553.31;1745998;80;21355;-83
2022/03/03 10:36:23;;;;;;;38.85;25.12;;;;;;;1.92;52.24;96548.66;1751467;80;21075;-83
2022/03/03 10:39:01;;;;;;;34.00;23.40;;;;;;;1.96;52.11;96541.90;1754639;80;20951;-83
2022/03/03 10:41:42;;;;;;;36.73;23.30;;;;;;;1.99;51.31;96545.96;1752327;80;21045;-83
2022/03/03 10:44:15;;;;;;;26.87;18.27;;;;;;;1.96;50.97;96549.59;1751561;80;21416;-83
2022/03/03 10:47:07;;;;;;;35.30;23.42;;;;;;;1.96;50.88;96543.66;1754705;81;20959;-83
2022/03/03 10:49:40;;;;;;;26.33;17.15;;;;;;;2.03;51.43;96547.33;1744283;80;21072;-83
2022/03/03 10:52:29;;;;;;;39.60;24.10;;;;;;;2.09;50.64;96551.95;1746139;81;20990;-83
2022/03/03 10:55:03;;;;;;;35.13;22.45;;;;;;;2.11;50.10;96542.38;1749754;81;21448;-83
2022/03/03 10:57:51;;;;;;;27.07;19.82;;;;;;;2.13;50.08;96540.52;1753320;80;21428;-83
2022/03/03 11:00:25;;;;;;;32.42;19.48;;;;;;;2.18;50.53;96541.42;1724102;81;21356;-83
2022/03/03 11:02:57;;;;;;;31.62;22.02;;;;;;;2.26;49.64;96539.02;1753408;80;20954;-83
2022/03/03 11:05:25;;;;;;;19.62;13.32;;;;;;;2.27;49.84;96537.61;1753836;81;21065;-83
2022/03/03 11:07:53;;;;;;;29.07;20.50;;;;;;;2.33;49.97;96532.00;1748865;81;21104;-83
2022/03/03 11:10:21;;;;;;;29.92;21.02;;;;;;;2.40;49.32;96532.30;1742762;81;21076;-83
2022/03/03 11:12:47;;;;;;;27.50;21.73;;;;;;;2.44;49.98;96532.41;1750129;80;21086;-83
2022/03/03 11:15:19;;;;;;;30.90;21.48;;;;;;;2.51;49.18;96524.52;1739091;81;20991;-83
2022/03/03 11:17:47;;;;;;;34.75;23.07;;;;;;;2.54;49.96;96529.86;1754305;80;20990;-83
2022/03/03 11:20:15;;;;;;;31.52;21.70;;;;;;;2.60;49.85;96521.64;1751689;81;21483;-83